AirNav   Everest Fuels
 
 1389 users online  

KVLL Oakland/Troy Airport
Troy, Michigan, USA

GOING TO TROY?


FAA INFORMATION EFFECTIVE 01 DECEMBER 2022

Location

FAA Identifier: VLL
Lat/Long: 42-32-34.6000N 083-10-40.4000W
42-32.576667N 083-10.673333W
42.5429444,-83.1778889
(estimated)
Elevation: 727.2 ft. / 221.7 m (surveyed)
Variation: 06W (1995)
From city: 2 miles E of TROY, MI
Time zone: UTC -5 (UTC -4 during Daylight Saving Time)
Zip code: 48084

Airport Operations

Airport use: Open to the public
Control tower: no
ARTCC: CLEVELAND CENTER
FSS: LANSING FLIGHT SERVICE STATION
NOTAMs facility: VLL (NOTAM-D service available)
Attendance: 0800-1800
Pattern altitude: 1727.2 ft. MSL
Wind indicator: lighted
Segmented circle: no
Lights: ACTVT PAPI RWY 10 & 28; MIRL RWY 10/28 - CTAF.
Beacon: white-green (lighted land airport)
Operates sunset to sunrise.
Landing fee: yes

Airport Communications

CTAF/UNICOM: 123.05
WX AWOS-3: 119.475 (248-288-4649)
DETROIT APPROACH: 132.35
DETROIT DEPARTURE: 132.35
WX ASOS at DET (11 nm SE): PHONE 313-371-9696
WX ASOS at PTK (13 nm NW): 125.025 (248-886-8551)

Nearby radio navigation aids

VOR radial/distance  VOR name  Freq  Var
SVMr069/20.1SALEM VORTAC114.3003W
DXOr029/21.5DETROIT VOR/DME113.4006W
CRLr026/32.2CARLETON VOR/DME115.7003W
FNTr141/35.7FLINT VORTAC116.9006W

 
NDB name  Hdg/Dist  Freq  Var  ID
GROSSE ILE005/26.541907WRYS .-. -.-- ...

Airport Services

Fuel available: 100LL JET-A+
Parking: hangars and tiedowns
Airframe service: NONE
Powerplant service: NONE

Runway Information

Runway 10/28

Dimensions: 3549 x 60 ft. / 1082 x 18 m
Surface: asphalt, in excellent condition
Runway edge lights: medium intensity
RUNWAY 10  RUNWAY 28
Latitude: 42-32.575973N42-32.578848N
Longitude: 083-11.068925W083-10.278788W
Elevation: 727.0 ft.701.0 ft.
Traffic pattern: leftleft
Runway heading: 096 magnetic, 090 true276 magnetic, 270 true
Markings: nonprecision, in good conditionnonprecision, in good condition
Visual slope indicator: 2-light PAPI on right (3.75 degrees glide path)2-light PAPI on left (3.75 degrees glide path)
Runway end identifier lights: nono
Touchdown point: yes, no lightsyes, no lights
Obstructions: 52 ft. tree, 205 ft. from runway, 170 ft. left of centerline, 1:1 slope to clear24 ft. tree, 571 ft. from runway, 120 ft. right of centerline, 15:1 slope to clear

Airport Ownership and Management from official FAA records

Ownership: Publicly-owned
Owner: OAKLAND COUNTY
6500 PATTERSON PKWY
WATERFORD, MI 48327-1683
Phone 248-666-3900
Manager: CHERYL BUSH
6500 PATTERSON PKWY
WATERFORD, MI 48327-1683
Phone 248-666-3900
ARPT PHYS ADS: 2672 INDUSTRIAL ROW DR, TROY, MI 48084.

Airport Operational Statistics

Aircraft based on the field: 104
Single engine airplanes: 92
Multi engine airplanes: 5
Helicopters: 6
Ultralights: 1
    
Aircraft operations: avg 82/day *
50% transient general aviation
50% local general aviation
* for 12-month period ending 31 December 2021

Additional Remarks

DEER & LRG BIRDS ON & INVOF ARPT.
NO TGL OR PRACTICE TFC PATTERNS.
FOR CD CTC DETROIT APCH AT 734-955-1404.

Instrument Procedures

NOTE: All procedures below are presented as PDF files. If you need a reader for these files, you should download the free Adobe Reader.

NOT FOR NAVIGATION. Please procure official charts for flight.
FAA instrument procedures published for use from 01 December 2022 at 0901Z to 29 December 2022 at 0900z.

 
STARs - Standard Terminal Arrivals
FOREY TWO (RNAV)   download (158KB)
OKLND ONE (RNAV)   download (143KB)
PETTE TWO (RNAV)   download (208KB)
RRALF THREE (RNAV)   download (160KB)
 
IAPs - Instrument Approach Procedures
RNAV (GPS) RWY 10   download (185KB)
NOTE: Special Alternate Minimums apply   download (138KB)
 
Departure Procedures
BARII TWO (RNAV)   download (160KB)
CCOBB TWO (RNAV)   download (197KB)
CLVIN TWO (RNAV)   download (175KB)
HHOWE THREE (RNAV)   download (183KB)
KAYLN TWO (RNAV)   download (162KB)
KZLOV ONE (RNAV)   download (157KB)
LIDDS TWO (RNAV)   download (176KB)
MIGGY TWO (RNAV)   download (194KB)
PAVYL TWO (RNAV)   download (173KB)
SNDRS TWO (RNAV)   download (207KB)
TRMML THREE (RNAV)   download (164KB)
ZETTR THREE (RNAV)   download (205KB)
NOTE: Special Take-Off Minimums/Departure Procedures apply   download (346KB)

Other nearby airports with instrument procedures:

KDET - Coleman A Young Municipal Airport (11 nm SE)
KPTK - Oakland County International Airport (13 nm NW)
KMTC - Selfridge Air National Guard Base (16 nm E)
1D2 - Canton-Plymouth-Mettetal Airport (17 nm SW)
57D - Ray Community Airport (17 nm NE)
D98 - Romeo State Airport (18 nm NE)
Y47 - Oakland Southwest Airport (20 nm W)
 
Loc | Ops | Rwys | IFR | FBO | Links
Com | Nav | Svcs | Stats | Notes
Area around KVLL (Oakland/Troy Airport)
 
Road maps at: MapQuest Bing Google
 
Aerial photo
WARNING: Photo may not be current or correct
Aerial photo of KVLL (Oakland/Troy Airport)
Photo by Jeff Schuster
Photo taken 29-Jun-2014
looking west.

Do you have a better or more recent aerial photo of Oakland/Troy Airport that you would like to share? If so, please send us your photo.

 
Sectional chart

 
Airport distance calculator
Flying to Oakland/Troy Airport? Find the distance to fly.

From to KVLL

Sunrise and sunset
Times for 09-Dec-2022
 Local
(UTC-5)
 Zulu
(UTC)
Morning civil twilight07:2012:20
Sunrise07:5212:52
Sunset16:5821:58
Evening civil twilight17:3022:30

Current date and time
Zulu (UTC)  09-Dec-2022 21:01:08
Local (UTC-5)  09-Dec-2022 16:01:08
 
METAR
KVLL 092055Z AUTO 05011KT 10SM OVC023 02/M02 A3029 RMK AO2 T00161016
KDET 
11nm SE 
092053Z 07013G18KT 8SM OVC025 04/M03 A3028 RMK AO2 SLP258 T00391028 55006
KPTK 
13nm NW 
092053Z 07010KT 10SM BKN022 OVC030 01/M04 A3026 RMK AO2 SLP257 T00111039 56007
KMTC 
17nm E 
092056Z 08010KT 10SM OVC026 03/M03 A3026 RMK AO2A SLP258 T00261027 55007
CYQG 
19nm SE 
092037Z AUTO 06012G20KT 9SM OVC025 03/M02 A3027 RMK SLP259
KDTW 
20nm S 
092053Z 07017G24KT 10SM FEW012 OVC024 03/M03 A3024 RMK AO2 PK WND 06026/2033 SLP246 T00281028 58012 PNO
TAF
KDET 
11nm SE 
091725Z 0918/1018 07012G20KT P6SM OVC020 FM092100 06010G18KT P6SM OVC012 FM100300 08010G15KT P6SM OVC015 FM101200 07009KT P6SM BKN020
KPTK 
13nm NW 
091725Z 0918/1018 08010G18KT P6SM OVC020 FM092100 08010G18KT P6SM OVC012 FM100300 08010G15KT P6SM OVC015 FM101200 07009KT P6SM BKN020
KMTC 
17nm E 
092000Z 0920/1102 08012KT 9999 BKN020 QNH3026INS TEMPO 1000/1003 BKN015 BECMG 1002/1003 08009KT 8000 -SN BKN015 620153 QNH3028INS BECMG 1005/1006 07009KT 9999 NSW BKN020 QNH3015INS BECMG 1022/1023 10006KT 8000 -RASN BKN015 OVC020 620153 QNH3012INS TX02/0922Z TN00/1011Z LAST NO AMDS AFT 1004 NEXT 1015
CYQG 
19nm SE 
091740Z 0918/1018 07010G20KT P6SM OVC030 TEMPO 0918/0920 OVC020 FM092000 06010G20KT P6SM BKN025 OVC140 TEMPO 0920/0924 5SM -SNRA BKN020 OVC140 FM100000 07008G18KT P6SM BKN030 BKN100 TEMPO 1000/1005 BKN020 BKN100 FM100500 06010KT P6SM BKN020 BKN060 BECMG 1013/1015 08010G20KT FM101700 10012KT P6SM -RA OVC020 RMK FCST BASED ON AUTO OBS. NXT FCST BY 100000Z
KDTW 
20nm S 
091725Z 0918/1024 07012G20KT P6SM OVC020 FM092100 06010G18KT P6SM OVC012 TEMPO 1000/1003 6SM -RASN OVC010 FM100300 08010G15KT P6SM OVC015 FM101200 07009KT P6SM BKN020 FM101800 08011KT P6SM OVC035
NOTAMs
Click for the latest NOTAMs
NOTAMs are issued by the DoD/FAA and will open in a separate window not controlled by AirNav.

 

 
 

FBO, Fuel Providers, and Aircraft Ground Support

  
 Business Name 
 
 Contact 
 
 Services / Description 
 
Fuel Prices
 
Comments
  
24hrfuel 248-781-0241
[web site]
[email]
Aviation fuel

More info about 24hrfuel
Titan
100LL Jet A
SS $6.56 $4.99 
 Updated 08-Dec-2022
 
   write
JDS Pump-N-Go 248-288-6100
[email]
Aviation fuel, Aircraft parking (ramp or tiedown), Hangar leasing / sales

More info about JDS Pump-N-Go
Avfuel
100LL Jet A
SS $6.72 $5.89 
 Updated 06-Dec-2022
 
   write
SS=Self service
Update Fuel Prices
 

Would you like to see your business listed on this page?

 If your business provides an interesting product or service to pilots, flight crews, aircraft, or users of the Oakland/Troy Airport, you should consider listing it here.  To start the listing process, click on the button below
 
Add a business
 

Other Pages about Oakland/Troy Airport

Oakland/Troy Airport Website
Page from the Michigan Airport Directory (PDF)
 
Update a link
 
Copyright © AirNav, LLC. All rights reserved. Privacy Policy  Contact